Holloman Air Force Base
KHMN : rendu visible

Aérodrome :











RETROUVEZ-NOUS SUR...

 
LOGIN :

S'inscrire | Disclaimer

   EN    FR    IT 

 









Légende :    VFR   VFR Marginal   IFR   IFR Intensif   IFR Très Intensif
Visi : 
Plafond : 
>= 8 km
>= 3000ft
5 à 8 km
1000 à 3000 ft
1500m à 5 km
500 à 1000 ft
800 à 1500m
200 à 500 ft
< 800m
< 200 ft
Symboles :   Orages  Brouillard  Fortes neiges  Fortes précipitations  Vent > 20 kt






- Altitude de l'aérodrome : 4093 ft


KHMN - Holloman Air Force Base

DERNIER METAR :
  • 031258Z AUTO 06004KT 10SM CLR M08/M15 A3033 RMK AO2 SLP286 T10821148 $

METARs EXPIRÉS :
  • 031158Z AUTO 02004KT 10SM CLR M07/M15 A3031 RMK AO2 SLP272 T10751148 11015 21078 56005 $
  • 031058Z AUTO 31004KT 10SM CLR M06/M14 A3031 RMK AO2 SLP268 T10621142 $

TAF TAF KHMN
Valide du 03 à 09h jusqu'au 04 à 15h UTC


030900Z 0309/0415 VRB06KT 9999 FEW060 QNH3030INS
BECMG 0317/0318 34009KT 9999 FEW040 QNH3026INS
BECMG 0401/0402 04009KT 9999 FEW080 QNH3027INS
BECMG 0408/0409 VRB06KT 9999 SKC QNH3027INS TX07/0322Z TNM08/0313Z
FIR KZAB / Amérique du Nord



MET'MAP, la Météo Aéronautique d'un coup d'oeil ! - Copyright ORBIFLY Décembre 2007 - Disclaimer

ORBIFLY MET'MAP TEAM :

Programmation & Développement : Alexandra Zaïnal
Sur une idée originale de : Baudouin d'Aumeries
Assistance à la programmation : Marc-Olivier Méhu
Soutien technique & logistique : Manuel Goepfert

Contact : metmap@orbifly.com




SOURCES & CREDITS :

   NOAA       Earth
Advisory